Time;durP1;ratioP1;P1;durP2;ratioP2;P2;SDS_P1;SDS_P2;PMS_P1;PMS_P2;Temp;Humidity;BMP_temperature;BMP_pressure;BME280_temperature;BME280_humidity;BME280_pressure;Samples;Min_cycle;Max_cycle;Signal;HPM_P1;HPM_P2
2021/11/12 00:14:47;;;;;;;99.57;60.92;;;;;;;5.13;100.00;102143.34;5066651;28;20134;-62
2021/11/12 00:17:14;;;;;;;109.03;64.97;;;;;;;5.10;100.00;102141.47;5064660;28;20086;-65
2021/11/12 00:19:39;;;;;;;113.15;67.65;;;;;;;5.07;100.00;102138.69;5066235;28;20028;-62
2021/11/12 00:22:05;;;;;;;103.68;65.03;;;;;;;5.01;100.00;102138.38;5065227;28;20039;-61
2021/11/12 00:24:31;;;;;;;117.43;69.07;;;;;;;4.99;100.00;102132.19;5065330;28;20013;-63
2021/11/12 00:26:56;;;;;;;112.88;67.88;;;;;;;4.94;100.00;102126.72;5066582;28;20024;-64
2021/11/12 00:29:22;;;;;;;100.78;62.65;;;;;;;4.98;100.00;102119.91;5063624;28;20392;-67
2021/11/12 00:32:11;;;;;;;109.78;67.47;;;;;;;4.93;100.00;102111.81;5067468;28;20028;-66
2021/11/12 00:39:37;;;;;;;96.40;59.75;;;;;;;4.80;100.00;102118.19;5064569;28;20121;-65
2021/11/12 00:42:12;;;;;;;111.75;66.32;;;;;;;4.84;100.00;102109.66;5065524;28;20024;-66
2021/11/12 00:44:42;;;;;;;114.15;66.72;;;;;;;4.78;100.00;102104.13;5065588;28;20464;-65
2021/11/12 00:55:10;;;;;;;100.82;62.97;;;;;;;4.58;100.00;102099.66;5042040;28;20033;-62
2021/11/12 00:57:35;;;;;;;108.93;65.20;;;;;;;4.54;100.00;102089.03;5043065;28;20021;-63
2021/11/12 01:00:03;;;;;;;101.47;60.63;;;;;;;4.41;100.00;102094.47;5042150;28;20088;-61
2021/11/12 01:02:29;;;;;;;94.55;58.58;;;;;;;4.31;100.00;102089.59;5041852;28;20520;-62
2021/11/12 01:04:54;;;;;;;90.22;56.72;;;;;;;4.21;100.00;102085.63;5044127;28;20044;-62
2021/11/12 01:07:20;;;;;;;96.63;58.88;;;;;;;4.22;100.00;102083.91;5040859;28;20120;-62
2021/11/12 01:09:45;;;;;;;102.97;62.58;;;;;;;4.18;100.00;102085.50;5044027;28;20071;-61
2021/11/12 01:12:11;;;;;;;109.65;65.13;;;;;;;4.17;100.00;102087.19;5041766;28;20020;-61
2021/11/12 01:14:36;;;;;;;114.63;66.05;;;;;;;4.11;100.00;102084.28;5042617;28;20037;-62
2021/11/12 01:17:02;;;;;;;106.63;61.40;;;;;;;4.01;100.00;102076.78;5042757;28;20040;-62
2021/11/12 01:19:27;;;;;;;89.03;56.58;;;;;;;3.80;100.00;102069.63;5041336;28;20120;-62
2021/11/12 01:21:53;;;;;;;87.13;55.00;;;;;;;3.81;100.00;102073.13;5043852;28;20071;-62
2021/11/12 01:24:18;;;;;;;110.05;61.42;;;;;;;3.86;100.00;102084.75;5040587;28;20025;-61
2021/11/12 01:26:44;;;;;;;98.45;58.47;;;;;;;3.72;100.00;102078.78;5052747;28;20037;-62
2021/11/12 01:29:09;;;;;;;96.55;59.92;;;;;;;3.76;100.00;102075.53;5064468;28;20041;-62
2021/11/12 01:31:35;;;;;;;107.97;62.45;;;;;;;3.73;100.00;102071.81;5064375;28;20111;-64
2021/11/12 01:34:26;;;;;;;109.78;63.95;;;;;;;3.70;100.00;102066.44;5063867;28;20032;-66
2021/11/12 01:36:51;;;;;;;92.95;57.42;;;;;;;3.54;100.00;102068.28;5062706;28;20045;-63
2021/11/12 01:39:20;;;;;;;90.60;55.60;;;;;;;3.50;100.00;102076.78;5065690;28;20032;-64
2021/11/12 01:41:51;;;;;;;91.97;55.13;;;;;;;3.51;100.00;102073.34;5062579;28;20029;-65
2021/11/12 01:44:28;;;;;;;89.15;54.65;;;;;;;3.41;100.00;102074.56;5066088;28;20107;-64
2021/11/12 01:49:25;;;;;;;89.55;56.42;;;;;;;3.30;100.00;102063.53;5065794;28;20537;-64
2021/11/12 01:52:18;;;;;;;86.22;55.28;;;;;;;3.33;100.00;102057.56;5062065;28;20036;-64
2021/11/12 01:54:49;;;;;;;99.57;57.75;;;;;;;3.28;100.00;102048.59;5063807;28;20039;-71
2021/11/12 02:00:00;;;;;;;95.78;55.67;;;;;;;3.20;100.00;102049.91;5063114;28;20441;-66
2021/11/12 02:02:26;;;;;;;95.22;55.30;;;;;;;3.17;100.00;102049.72;5065179;28;20103;-66
2021/11/12 02:04:52;;;;;;;99.60;57.63;;;;;;;3.08;100.00;102035.34;5061616;28;20036;-66
2021/11/12 02:07:19;;;;;;;103.70;58.40;;;;;;;3.00;100.00;102036.66;5062225;28;20025;-71
2021/11/12 02:09:45;;;;;;;110.50;62.10;;;;;;;3.05;100.00;102024.72;5064814;28;20028;-69
2021/11/12 02:14:42;;;;;;;94.78;56.38;;;;;;;2.89;100.00;102022.13;5064355;28;20120;-69
2021/11/12 02:19:54;;;;;;;92.65;56.25;;;;;;;2.78;100.00;102017.22;5063799;28;20036;-71
2021/11/12 02:22:21;;;;;;;109.15;57.13;;;;;;;2.73;100.00;102002.97;5061723;28;20021;-67
2021/11/12 02:25:01;;;;;;;117.57;64.90;;;;;;;2.77;100.00;102006.69;5064878;28;20032;-71
2021/11/12 02:27:32;;;;;;;103.60;60.38;;;;;;;2.76;100.00;102005.75;5062335;28;20431;-71
2021/11/12 02:29:58;;;;;;;119.68;64.70;;;;;;;2.74;100.00;102004.78;5064014;28;20056;-67
2021/11/12 02:32:27;;;;;;;118.13;65.72;;;;;;;2.78;100.00;102006.75;5061195;28;20027;-69
2021/11/12 02:34:54;;;;;;;120.70;67.22;;;;;;;2.83;100.00;102011.34;5064970;28;20032;-66
2021/11/12 02:37:25;;;;;;;116.97;66.95;;;;;;;2.80;100.00;102017.28;5061629;28;20399;-68
2021/11/12 02:39:52;;;;;;;131.18;69.47;;;;;;;2.94;100.00;102028.47;5061098;28;20067;-68
2021/11/12 02:42:18;;;;;;;140.43;73.78;;;;;;;3.08;100.00;102029.22;5064362;28;20029;-68
2021/11/12 02:44:44;;;;;;;122.47;69.05;;;;;;;3.14;100.00;102033.06;5061675;28;20025;-67
2021/11/12 02:47:12;;;;;;;135.98;72.35;;;;;;;3.27;100.00;102026.78;5063328;28;20108;-68
2021/11/12 02:49:38;;;;;;;128.00;71.80;;;;;;;3.36;100.00;102018.50;5062614;28;20031;-72
2021/11/12 02:52:06;;;;;;;133.85;75.38;;;;;;;3.39;100.00;102016.06;5062675;28;20388;-70
2021/11/12 02:54:31;;;;;;;130.02;69.60;;;;;;;3.36;100.00;102020.25;5063234;28;20131;-71
2021/11/12 02:56:59;;;;;;;117.53;66.47;;;;;;;3.29;100.00;102019.00;5061468;28;20084;-70
2021/11/12 02:59:25;;;;;;;108.03;61.22;;;;;;;3.14;100.00;102006.91;5064111;28;20116;-68
2021/11/12 03:01:50;;;;;;;103.97;61.10;;;;;;;3.10;100.00;101999.75;5060883;28;20032;-72
2021/11/12 03:04:17;;;;;;;109.30;63.13;;;;;;;3.01;100.00;101994.03;5064024;28;20028;-72
2021/11/12 03:06:43;;;;;;;126.95;69.55;;;;;;;2.99;100.00;101998.28;5061865;28;20048;-71
2021/11/12 03:09:10;;;;;;;133.57;73.78;;;;;;;3.00;100.00;101992.25;5062817;28;20067;-72
2021/11/12 03:11:37;;;;;;;127.15;72.10;;;;;;;2.95;100.00;101991.09;5062580;28;20379;-70
2021/11/12 03:14:05;;;;;;;117.93;67.55;;;;;;;2.84;100.00;101993.13;5060873;28;20028;-74
2021/11/12 03:16:31;;;;;;;126.93;69.15;;;;;;;2.77;100.00;101989.28;5063095;28;20463;-70
2021/11/12 03:19:01;;;;;;;132.73;72.88;;;;;;;2.79;100.00;101984.13;5061056;28;20033;-70
2021/11/12 03:21:28;;;;;;;128.25;72.60;;;;;;;2.79;100.00;101984.13;5063768;28;20025;-71
2021/11/12 03:24:05;;;;;;;125.00;69.30;;;;;;;2.67;100.00;101979.16;5064470;28;20104;-69
2021/11/12 03:26:49;;;;;;;107.05;61.53;;;;;;;2.50;100.00;101972.09;5070056;28;20375;-70
2021/11/12 03:29:54;;;;;;;117.13;65.15;;;;;;;2.44;100.00;101960.50;5069973;28;20052;-69
2021/11/12 03:59:47;;;;;;;137.48;75.45;;;;;;;2.26;100.00;101951.66;5068383;28;20068;-71
2021/11/12 04:02:13;;;;;;;133.40;73.40;;;;;;;2.24;100.00;101950.66;5069039;28;20043;-73
2021/11/12 04:04:46;;;;;;;137.48;75.78;;;;;;;2.14;100.00;101961.41;5068368;28;20070;-70
2021/11/12 04:30:41;;;;;;;140.85;77.10;;;;;;;1.84;100.00;101912.81;5046119;28;20027;-64
2021/11/12 04:49:16;;;;;;;157.20;80.30;;;;;;;1.76;100.00;101876.69;5028420;28;20407;-63
2021/11/12 05:33:43;;;;;;;123.10;69.75;;;;;;;1.94;100.00;101776.00;5052299;28;20048;-70
2021/11/12 05:44:25;;;;;;;123.05;70.05;;;;;;;1.81;100.00;101800.50;5052287;28;20550;-71
2021/11/12 05:49:41;;;;;;;119.53;67.57;;;;;;;1.80;100.00;101795.22;5047530;28;20037;-72
2021/11/12 05:49:56;;;;;;;123.45;68.85;;;;;;;1.80;100.00;101792.59;5049736;28;20033;-73
2021/11/12 05:55:09;;;;;;;121.35;68.88;;;;;;;1.82;100.00;101784.06;5063783;28;20154;-71
2021/11/12 05:57:38;;;;;;;117.35;66.80;;;;;;;1.79;100.00;101804.75;5064354;28;20095;-72
2021/11/12 06:00:10;;;;;;;116.57;64.63;;;;;;;1.72;100.00;101819.16;5063298;28;20384;-64
2021/11/12 06:02:35;;;;;;;116.25;66.00;;;;;;;1.70;100.00;101812.03;5063770;28;20028;-63
2021/11/12 06:05:01;;;;;;;116.95;65.53;;;;;;;1.64;100.00;101812.59;5062460;28;20082;-63
2021/11/12 06:07:28;;;;;;;113.57;64.97;;;;;;;1.63;100.00;101803.00;5065409;28;20048;-63
2021/11/12 06:09:53;;;;;;;112.75;63.95;;;;;;;1.59;100.00;101798.44;5062026;28;20017;-64
2021/11/12 06:12:18;;;;;;;108.03;61.40;;;;;;;1.56;100.00;101793.94;5064835;28;20078;-63
2021/11/12 06:14:44;;;;;;;115.75;64.35;;;;;;;1.54;100.00;101792.97;5062604;28;20016;-66
2021/11/12 06:17:09;;;;;;;112.25;62.83;;;;;;;1.52;100.00;101793.69;5063515;28;20368;-67
2021/11/12 06:19:35;;;;;;;109.07;61.60;;;;;;;1.47;100.00;101789.91;5064090;28;20361;-64
2021/11/12 06:22:00;;;;;;;106.43;61.17;;;;;;;1.47;100.00;101782.09;5063021;28;20025;-64
2021/11/12 06:24:29;;;;;;;101.60;59.88;;;;;;;1.42;100.00;101796.56;5065102;28;20021;-67
2021/11/12 06:26:58;;;;;;;96.47;56.50;;;;;;;1.37;100.00;101802.41;5061836;28;20063;-65
2021/11/12 06:29:33;;;;;;;105.35;62.30;;;;;;;1.33;100.00;101808.25;5061493;28;20060;-71
2021/11/12 06:32:01;;;;;;;97.13;57.63;;;;;;;1.29;100.00;101811.50;5062323;28;20068;-68
2021/11/12 06:34:28;;;;;;;102.07;58.97;;;;;;;1.25;100.00;101814.72;5064762;28;20046;-67
2021/11/12 06:37:00;;;;;;;101.78;60.15;;;;;;;1.21;100.00;101818.00;5061600;28;20028;-66
2021/11/12 06:39:25;;;;;;;102.72;59.17;;;;;;;1.21;100.00;101824.09;5063071;28;20044;-62
2021/11/12 06:49:48;;;;;;;102.50;58.65;;;;;;;1.14;100.00;101821.94;5068990;28;20048;-63
2021/11/12 06:52:13;;;;;;;106.57;60.63;;;;;;;1.11;100.00;101816.56;5069284;28;20032;-64
2021/11/12 06:54:41;;;;;;;114.13;63.25;;;;;;;1.11;100.00;101811.34;5071192;28;20021;-63
2021/11/12 06:57:09;;;;;;;111.72;63.08;;;;;;;1.13;100.00;101799.28;5069075;28;20043;-62
2021/11/12 06:59:35;;;;;;;103.03;59.08;;;;;;;1.14;100.00;101795.00;5071047;28;20016;-64
2021/11/12 07:02:05;;;;;;;95.70;56.45;;;;;;;1.07;100.00;101787.63;5071351;28;20032;-65
2021/11/12 07:04:31;;;;;;;100.30;58.83;;;;;;;1.08;100.00;101805.03;5070436;28;20103;-64
2021/11/12 07:06:59;;;;;;;99.72;60.47;;;;;;;1.01;100.00;101804.69;5071193;28;20077;-64
2021/11/12 07:09:27;;;;;;;92.57;57.25;;;;;;;0.97;100.00;101794.91;5069163;28;20028;-64
2021/11/12 07:11:55;;;;;;;97.00;57.45;;;;;;;0.94;100.00;101791.22;5065403;28;20055;-63
2021/11/12 07:14:20;;;;;;;89.38;56.95;;;;;;;0.87;100.00;101789.97;5068528;28;20032;-62
2021/11/12 07:16:48;;;;;;;94.70;58.35;;;;;;;0.82;100.00;101786.22;5071137;28;20382;-63
2021/11/12 07:19:14;;;;;;;99.78;59.20;;;;;;;0.78;100.00;101786.81;5071386;28;20035;-64
2021/11/12 07:21:39;;;;;;;96.75;59.08;;;;;;;0.76;100.00;101785.81;5071593;28;20029;-62
2021/11/12 07:24:05;;;;;;;100.68;60.20;;;;;;;0.70;100.00;101791.59;5071656;28;20028;-62
2021/11/12 07:26:31;;;;;;;101.85;59.00;;;;;;;0.71;100.00;101782.06;5071256;28;20046;-64
2021/11/12 07:28:59;;;;;;;104.32;61.67;;;;;;;0.69;100.00;101772.44;5070127;28;20040;-64
2021/11/12 07:31:25;;;;;;;95.68;60.20;;;;;;;0.69;100.00;101775.06;5070695;28;20044;-63
2021/11/12 07:33:52;;;;;;;99.30;60.50;;;;;;;0.71;100.00;101777.75;5071182;28;20082;-62
2021/11/12 07:36:22;;;;;;;100.15;60.80;;;;;;;0.74;100.00;101777.03;5070735;28;20028;-63
2021/11/12 07:38:53;;;;;;;95.57;58.40;;;;;;;0.75;100.00;101763.22;5070622;28;20111;-63
2021/11/12 07:41:41;;;;;;;91.40;58.70;;;;;;;0.78;100.00;101755.59;5069143;28;20086;-63
2021/11/12 07:46:57;;;;;;;86.15;57.70;;;;;;;0.81;100.00;101756.66;5070768;28;20028;-64
2021/11/12 07:49:23;;;;;;;88.97;56.50;;;;;;;0.89;100.00;101751.00;5069689;28;20479;-63
2021/11/12 07:51:49;;;;;;;80.97;55.60;;;;;;;0.98;100.00;101747.22;5071072;28;20024;-64
2021/11/12 07:54:17;;;;;;;84.00;56.30;;;;;;;1.06;100.00;101728.53;5069956;28;20070;-64
2021/11/12 07:56:43;;;;;;;84.18;55.75;;;;;;;1.15;100.00;101726.44;5070441;28;20067;-62
2021/11/12 07:59:09;;;;;;;85.97;56.50;;;;;;;1.29;100.00;101737.66;5070645;28;20020;-62
2021/11/12 08:01:34;;;;;;;80.97;52.97;;;;;;;1.41;100.00;101740.06;5070578;28;20036;-63
2021/11/12 08:04:02;;;;;;;77.70;52.67;;;;;;;1.48;100.00;101734.38;5069249;28;20064;-62
2021/11/12 08:06:29;;;;;;;75.32;51.28;;;;;;;1.63;100.00;101737.84;5070500;28;20535;-64
2021/11/12 08:09:17;;;;;;;70.63;48.50;;;;;;;1.81;100.00;101739.66;5070657;28;20032;-62
2021/11/12 08:11:45;;;;;;;69.60;46.85;;;;;;;1.98;100.00;101730.09;5069228;28;20436;-63
2021/11/12 08:21:45;;;;;;;65.32;44.33;;;;;;;2.50;100.00;101730.22;5070334;28;20032;-63
2021/11/12 08:35:07;;;;;;;59.85;42.60;;;;;;;2.98;100.00;101740.47;5071365;28;20507;-63
2021/11/12 08:45:42;;;;;;;58.60;41.25;;;;;;;3.71;100.00;101704.69;5051464;28;20029;-63
2021/11/12 08:48:19;;;;;;;57.83;40.28;;;;;;;3.81;100.00;101692.09;5036111;28;20032;-63
2021/11/12 08:50:45;;;;;;;55.35;38.78;;;;;;;3.76;100.00;101687.50;5048995;28;20078;-63
2021/11/12 08:53:12;;;;;;;60.65;39.50;;;;;;;3.70;100.00;101677.66;5051660;28;20046;-63
2021/11/12 08:55:39;;;;;;;53.08;38.20;;;;;;;3.68;100.00;101687.13;5051488;28;20047;-63
2021/11/12 08:58:07;;;;;;;55.13;38.15;;;;;;;3.77;100.00;101703.28;5051082;28;20040;-63
2021/11/12 09:00:34;;;;;;;55.15;38.28;;;;;;;3.99;100.00;101702.53;5051315;28;20037;-62
2021/11/12 09:03:01;;;;;;;56.20;38.67;;;;;;;4.10;99.92;101695.13;5051180;28;20538;-64
2021/11/12 09:05:28;;;;;;;52.97;37.63;;;;;;;4.15;97.92;101697.94;5051103;28;20121;-63
2021/11/12 09:07:54;;;;;;;56.15;38.70;;;;;;;4.24;98.44;101689.59;5051278;28;20033;-65
2021/11/12 09:10:25;;;;;;;56.83;39.25;;;;;;;4.42;98.14;101677.31;5049663;28;20439;-64
2021/11/12 09:13:05;;;;;;;53.13;36.58;;;;;;;4.57;94.57;101670.94;5052293;28;20033;-65
2021/11/12 09:15:32;;;;;;;56.55;38.53;;;;;;;4.68;92.15;101662.69;5048653;28;20044;-70
2021/11/12 09:18:00;;;;;;;53.58;37.38;;;;;;;4.80;92.84;101667.53;5061194;28;20476;-69
2021/11/12 09:20:26;;;;;;;54.63;37.50;;;;;;;5.06;91.61;101668.59;5065625;28;20387;-71
2021/11/12 09:22:53;;;;;;;51.70;36.92;;;;;;;5.00;90.37;101677.97;5063262;28;20025;-71
2021/11/12 09:25:20;;;;;;;53.13;37.38;;;;;;;4.79;92.03;101677.97;5064616;28;20025;-72
2021/11/12 09:27:45;;;;;;;53.78;39.13;;;;;;;4.81;93.42;101663.22;5064436;28;20471;-69
2021/11/12 09:30:23;;;;;;;51.67;36.35;;;;;;;5.03;91.09;101662.34;5063237;28;20631;-70
2021/11/12 09:32:50;;;;;;;55.15;39.03;;;;;;;5.18;90.78;101652.47;5064289;28;20480;-70
2021/11/12 09:35:16;;;;;;;54.03;37.60;;;;;;;5.45;89.30;101646.53;5064038;28;20127;-69
2021/11/12 09:37:41;;;;;;;54.78;38.47;;;;;;;5.55;90.65;101646.03;5065207;28;20060;-69
2021/11/12 09:40:07;;;;;;;55.90;39.00;;;;;;;5.70;86.10;101636.94;5062785;28;20448;-70
2021/11/12 09:42:35;;;;;;;50.40;35.80;;;;;;;6.00;84.62;101641.53;5065749;28;20028;-72
2021/11/12 09:45:04;;;;;;;51.72;36.35;;;;;;;5.89;83.45;101643.75;5059949;28;20083;-64
2021/11/12 09:47:30;;;;;;;51.97;35.72;;;;;;;5.84;84.12;101648.84;5061367;28;20024;-72
2021/11/12 09:49:58;;;;;;;52.30;37.33;;;;;;;5.79;84.13;101654.75;5063217;28;20391;-65
2021/11/12 09:52:26;;;;;;;53.67;37.53;;;;;;;6.02;82.87;101650.38;5065136;28;20100;-65
2021/11/12 09:54:53;;;;;;;51.33;37.22;;;;;;;6.09;82.30;101652.38;5064490;28;20026;-64
2021/11/12 09:57:19;;;;;;;49.78;34.58;;;;;;;6.01;81.67;101652.09;5061580;28;20082;-61
2021/11/12 09:59:47;;;;;;;51.78;36.13;;;;;;;6.08;83.29;101659.34;5061530;28;20055;-62
2021/11/12 10:02:14;;;;;;;52.25;37.08;;;;;;;6.63;81.52;101646.34;5062810;28;20028;-62
2021/11/12 10:04:39;;;;;;;50.45;35.58;;;;;;;7.04;78.30;101627.50;5064564;28;20036;-62
2021/11/12 10:07:13;;;;;;;50.97;35.63;;;;;;;7.22;77.67;101621.91;5064968;28;20460;-61
2021/11/12 10:09:41;;;;;;;51.15;35.30;;;;;;;7.37;76.67;101613.59;5069853;28;20025;-61
2021/11/12 10:12:09;;;;;;;52.33;35.80;;;;;;;7.36;76.28;101612.69;5071501;28;20103;-61
2021/11/12 10:15:03;;;;;;;50.75;35.38;;;;;;;7.47;75.45;101613.91;5070812;28;20035;-62
2021/11/12 10:17:25;;;;;;;50.65;35.35;;;;;;;7.70;75.00;101605.78;5070473;28;20405;-63
2021/11/12 10:19:54;;;;;;;49.85;34.65;;;;;;;7.82;73.65;101613.13;5067813;28;20041;-63
2021/11/12 10:22:24;;;;;;;50.80;33.58;;;;;;;7.88;73.71;101599.25;5071844;28;20024;-63
2021/11/12 10:24:49;;;;;;;49.35;33.65;;;;;;;8.24;72.37;101590.53;5069968;28;20024;-63
2021/11/12 10:27:21;;;;;;;47.10;33.00;;;;;;;8.84;71.13;101592.03;5072208;28;20437;-62
2021/11/12 10:29:53;;;;;;;46.45;32.20;;;;;;;9.26;68.36;101580.66;5069526;28;20086;-64
2021/11/12 10:32:26;;;;;;;48.90;33.47;;;;;;;9.70;68.19;101566.63;5071017;28;20029;-62
2021/11/12 10:35:02;;;;;;;46.03;31.38;;;;;;;10.92;62.98;101560.75;5070097;28;20021;-63
2021/11/12 10:37:31;;;;;;;45.28;30.80;;;;;;;11.67;60.21;101568.78;5068782;28;20040;-61
2021/11/12 10:40:08;;;;;;;45.97;30.98;;;;;;;11.67;60.06;101558.19;5071672;28;20135;-63
2021/11/12 10:42:55;;;;;;;44.78;31.17;;;;;;;12.12;61.59;101548.97;5070805;28;20020;-62
2021/11/12 10:45:24;;;;;;;44.40;29.83;;;;;;;12.91;55.83;101560.16;5069436;28;20114;-63
2021/11/12 10:48:06;;;;;;;43.63;29.65;;;;;;;13.12;56.21;101555.84;5070870;28;20028;-62
2021/11/12 10:50:34;;;;;;;42.55;29.88;;;;;;;13.40;53.99;101547.16;5070768;28;20044;-63
2021/11/12 10:53:16;;;;;;;42.95;30.38;;;;;;;13.97;54.23;101534.94;5064961;28;20029;-62
2021/11/12 10:55:43;;;;;;;43.17;29.55;;;;;;;14.06;50.40;101529.59;5065089;28;20107;-64
2021/11/12 10:58:12;;;;;;;40.85;29.40;;;;;;;14.28;50.09;101536.72;5063167;28;20024;-62
2021/11/12 11:00:47;;;;;;;42.85;29.13;;;;;;;14.05;51.12;101543.78;5066935;28;20033;-64
2021/11/12 11:03:15;;;;;;;42.25;29.35;;;;;;;14.34;48.79;101540.25;5065241;28;20029;-64
2021/11/12 11:05:44;;;;;;;42.60;29.92;;;;;;;13.44;51.01;101540.13;5068129;28;20064;-62
2021/11/12 11:08:19;;;;;;;44.33;30.38;;;;;;;13.39;52.49;101544.50;5068239;28;20035;-62
2021/11/12 11:11:05;;;;;;;42.78;29.70;;;;;;;14.08;54.02;101530.47;5068259;28;20028;-62
2021/11/12 11:13:36;;;;;;;41.60;29.77;;;;;;;14.91;48.15;101537.53;5069126;28;20025;-63
2021/11/12 11:16:07;;;;;;;44.13;30.35;;;;;;;15.34;47.72;101527.63;5069622;28;20399;-62
2021/11/12 11:18:37;;;;;;;42.00;30.15;;;;;;;15.12;48.60;101528.63;5069501;28;20024;-62
2021/11/12 11:23:57;;;;;;;41.85;29.55;;;;;;;16.56;47.32;101521.44;5070417;28;20021;-63
2021/11/12 11:26:37;;;;;;;42.45;30.45;;;;;;;17.13;44.30;101514.63;5069461;28;20040;-62
2021/11/12 11:29:05;;;;;;;41.60;28.83;;;;;;;17.33;43.12;101514.38;5069593;28;20066;-63
2021/11/12 11:31:32;;;;;;;42.25;29.38;;;;;;;17.46;42.17;101514.22;5066560;28;20495;-63
2021/11/12 11:33:59;;;;;;;42.67;28.75;;;;;;;17.41;42.90;101509.81;5062639;28;20025;-62
2021/11/12 11:36:27;;;;;;;41.20;29.85;;;;;;;17.36;41.88;101490.28;5061685;28;20020;-63
2021/11/12 11:38:55;;;;;;;42.33;30.80;;;;;;;16.38;45.43;101493.16;5062426;28;20051;-63
2021/11/12 11:41:23;;;;;;;41.95;30.13;;;;;;;16.46;44.27;101489.53;5061933;28;20033;-63
2021/11/12 11:43:49;;;;;;;41.00;29.70;;;;;;;16.88;42.61;101492.69;5062057;28;20021;-63
2021/11/12 11:46:29;;;;;;;40.92;29.00;;;;;;;17.54;44.30;101482.94;5066857;28;20404;-63
2021/11/12 11:49:00;;;;;;;41.25;29.30;;;;;;;17.73;41.39;101467.50;5066915;28;20029;-63
2021/11/12 11:51:35;;;;;;;42.00;29.85;;;;;;;17.32;43.32;101466.31;5065600;28;20025;-63
2021/11/12 11:54:04;;;;;;;41.72;29.85;;;;;;;17.67;41.23;101471.13;5067846;28;20107;-63
2021/11/12 11:56:35;;;;;;;40.40;29.05;;;;;;;17.15;42.75;101466.53;5065305;28;20368;-63
2021/11/12 11:59:17;;;;;;;41.65;29.40;;;;;;;16.27;45.01;101457.69;5063345;28;20033;-62
2021/11/12 12:01:59;;;;;;;42.63;30.25;;;;;;;16.14;46.44;101456.06;5065181;28;20099;-62
2021/11/12 12:04:28;;;;;;;41.35;30.13;;;;;;;16.49;45.78;101453.03;5063953;28;20440;-70
2021/11/12 12:07:02;;;;;;;42.72;30.98;;;;;;;16.28;46.32;101454.16;5064633;28;20035;-70
2021/11/12 12:09:41;;;;;;;42.55;29.88;;;;;;;16.50;45.90;101441.47;5066729;28;20028;-70
2021/11/12 12:12:07;;;;;;;43.53;30.27;;;;;;;16.51;44.38;101429.00;5064170;28;20480;-70
2021/11/12 12:14:35;;;;;;;40.80;28.23;;;;;;;16.75;43.69;101417.16;5064231;28;20043;-70
2021/11/12 12:17:02;;;;;;;43.28;29.25;;;;;;;16.32;44.47;101407.84;5067810;28;20067;-68
2021/11/12 12:19:54;;;;;;;41.40;28.98;;;;;;;15.97;47.04;101405.53;5073214;28;20048;-70
2021/11/12 12:43:24;;;;;;;38.83;25.80;;;;;;;15.51;46.00;101417.44;5069982;28;20047;-61
2021/11/12 13:25:53;;;;;;;36.33;23.25;;;;;;;12.52;54.85;101342.47;5064049;28;20040;-68
2021/11/12 13:28:29;;;;;;;37.60;23.95;;;;;;;12.37;55.48;101335.31;5066132;28;20507;-69
2021/11/12 13:31:12;;;;;;;35.67;22.25;;;;;;;12.26;56.76;101326.44;5070383;28;20048;-68
2021/11/12 13:33:49;;;;;;;37.83;23.42;;;;;;;12.11;57.31;101339.59;5071784;28;20028;-70
2021/11/12 13:36:25;;;;;;;36.25;22.77;;;;;;;12.02;57.80;101322.75;5071812;28;20035;-71
2021/11/12 13:38:55;;;;;;;37.70;23.15;;;;;;;11.87;58.74;101317.34;5071840;28;20033;-62
2021/11/12 13:41:24;;;;;;;36.92;23.48;;;;;;;11.69;59.49;101315.44;5069595;28;20033;-62
2021/11/12 13:43:50;;;;;;;35.88;22.35;;;;;;;11.68;59.66;101308.38;5072066;28;20020;-63
2021/11/12 13:46:16;;;;;;;37.88;23.15;;;;;;;11.63;59.96;101305.69;5071158;28;20066;-64
2021/11/12 13:48:44;;;;;;;37.08;22.85;;;;;;;11.52;60.89;101305.59;5071876;28;20392;-62
2021/11/12 13:51:11;;;;;;;35.97;22.75;;;;;;;11.45;61.11;101297.63;5070371;28;20020;-63
2021/11/12 13:53:37;;;;;;;36.85;23.00;;;;;;;11.41;61.95;101295.81;5071478;28;20033;-62
2021/11/12 13:56:08;;;;;;;37.30;23.15;;;;;;;11.43;61.20;101302.00;5070999;28;20154;-61
2021/11/12 13:58:34;;;;;;;35.90;22.67;;;;;;;11.44;61.15;101298.47;5071005;28;21136;-61
2021/11/12 14:00:59;;;;;;;36.22;22.92;;;;;;;11.34;63.38;101289.56;5071015;28;20287;-61
2021/11/12 14:03:37;;;;;;;37.15;23.05;;;;;;;11.34;62.27;101286.94;5071451;28;20162;-62
2021/11/12 14:06:09;;;;;;;34.70;21.45;;;;;;;11.33;62.10;101291.34;5070963;28;20025;-61
2021/11/12 14:08:46;;;;;;;36.33;22.13;;;;;;;11.24;62.42;101283.34;5071444;28;20403;-62
2021/11/12 14:11:21;;;;;;;37.20;21.98;;;;;;;11.17;63.17;101276.22;5071038;28;20017;-61
2021/11/12 14:13:48;;;;;;;35.30;21.95;;;;;;;11.09;63.55;101273.47;5070078;28;20411;-62
2021/11/12 14:16:19;;;;;;;34.45;21.63;;;;;;;11.05;62.86;101266.38;5071035;28;20025;-62
2021/11/12 14:21:53;;;;;;;35.80;21.90;;;;;;;10.94;64.51;101258.38;5069989;28;20158;-62
2021/11/12 14:29:28;;;;;;;35.72;21.80;;;;;;;10.77;66.05;101244.97;5066651;28;20135;-63
2021/11/12 14:34:38;;;;;;;35.83;20.98;;;;;;;10.80;65.81;101229.16;5063716;28;20032;-63
2021/11/12 14:39:41;;;;;;;35.30;21.10;;;;;;;10.68;66.71;101221.09;5061757;28;20032;-63
2021/11/12 14:45:23;;;;;;;36.60;22.73;;;;;;;10.87;66.62;101222.16;5061735;28;20275;-62
2021/11/12 14:50:33;;;;;;;37.67;22.40;;;;;;;10.97;65.72;101209.91;5064731;28;20119;-63
2021/11/12 14:53:25;;;;;;;35.85;21.13;;;;;;;10.92;66.22;101219.53;5063026;28;20450;-65
2021/11/12 14:56:02;;;;;;;36.13;22.20;;;;;;;10.82;66.24;101224.75;5061912;28;20071;-70
2021/11/12 14:58:28;;;;;;;34.78;22.45;;;;;;;10.85;66.81;101225.63;5062984;28;20025;-71
2021/11/12 15:01:02;;;;;;;36.03;22.13;;;;;;;10.85;66.30;101215.97;5062063;28;20552;-71
2021/11/12 15:03:28;;;;;;;35.65;21.88;;;;;;;10.80;66.60;101218.56;5063216;28;20016;-67
2021/11/12 15:05:53;;;;;;;37.85;22.70;;;;;;;10.64;67.36;101209.59;5061762;28;20104;-70
2021/11/12 15:08:23;;;;;;;37.15;22.42;;;;;;;10.59;68.30;101197.22;5064083;28;20024;-70
2021/11/12 15:10:50;;;;;;;36.20;21.70;;;;;;;10.64;68.08;101206.97;5061348;28;20032;-68
2021/11/12 15:13:19;;;;;;;36.63;22.40;;;;;;;10.59;67.93;101207.78;5064237;28;20024;-62
2021/11/12 15:15:44;;;;;;;35.72;22.20;;;;;;;10.54;68.72;101199.81;5061033;28;20029;-62
2021/11/12 15:18:11;;;;;;;37.95;22.27;;;;;;;10.41;68.93;101185.59;5064188;28;20019;-61
2021/11/12 15:20:38;;;;;;;37.65;22.55;;;;;;;10.32;70.39;101187.19;5060825;28;20079;-62
2021/11/12 15:23:29;;;;;;;41.78;25.05;;;;;;;10.24;70.53;101181.84;5063390;28;20112;-62
2021/11/12 15:31:25;;;;;;;39.92;25.45;;;;;;;10.12;71.90;101164.97;5042371;28;20041;-62
2021/11/12 15:34:00;;;;;;;40.90;25.88;;;;;;;10.18;71.84;101160.59;5039313;28;20038;-62
2021/11/12 15:36:26;;;;;;;40.53;26.42;;;;;;;10.25;71.66;101155.44;5040565;28;20055;-65
2021/11/12 15:38:55;;;;;;;41.22;26.40;;;;;;;10.08;71.94;101142.03;5039155;28;20065;-62
2021/11/12 15:44:00;;;;;;;41.80;27.88;;;;;;;9.62;74.30;101149.38;5045239;28;20037;-64
2021/11/12 15:46:32;;;;;;;45.45;29.13;;;;;;;9.34;75.51;101142.84;5047568;28;20194;-65
2021/11/12 15:48:58;;;;;;;43.08;29.00;;;;;;;9.12;76.26;101133.75;5047815;28;20033;-63
2021/11/12 15:51:34;;;;;;;42.67;28.85;;;;;;;8.96;77.54;101125.59;5047421;28;20476;-61
2021/11/12 15:56:59;;;;;;;43.08;29.77;;;;;;;8.84;79.30;101125.38;5047406;28;20025;-61
2021/11/12 16:17:38;;;;;;;42.65;29.85;;;;;;;8.08;83.69;101138.97;5070043;28;20044;-61
2021/11/12 16:20:23;;;;;;;44.55;29.58;;;;;;;8.15;83.83;101136.47;5067237;28;20063;-61
2021/11/12 16:25:21;;;;;;;43.28;28.52;;;;;;;8.11;85.02;101113.59;5066894;28;20024;-63
2021/11/12 16:27:56;;;;;;;43.15;27.73;;;;;;;8.19;84.31;101105.81;5067967;28;20040;-61
2021/11/12 16:30:25;;;;;;;43.47;28.13;;;;;;;8.13;84.05;101101.31;5068289;28;20157;-61